createdAt,value
2019-02-18T00:04:34.649Z,99634.02
2019-02-18T00:14:37.251Z,99630.25
2019-02-18T00:24:38.157Z,99634.91
2019-02-18T00:34:39.946Z,99636.56
2019-02-18T00:44:40.729Z,99636.17
2019-02-18T00:54:41.654Z,99635.28
2019-02-18T01:04:42.542Z,99637.20
2019-02-18T01:14:43.449Z,99634.64
2019-02-18T01:24:45.375Z,99630.32
2019-02-18T01:34:46.325Z,99637.01
2019-02-18T01:44:47.752Z,99620.44
2019-02-18T01:54:51.854Z,99633.84
2019-02-18T02:04:54.446Z,99624.30
2019-02-18T02:14:57.359Z,99626.30
2019-02-18T02:24:58.305Z,99613.09
2019-02-18T02:34:59.405Z,99598.23
2019-02-18T02:45:07.933Z,99589.44
2019-02-18T02:55:08.917Z,99585.84
2019-02-18T03:05:10.815Z,99584.60
2019-02-18T03:15:20.952Z,99578.55
2019-02-18T03:25:29.240Z,99582.34
2019-02-18T03:35:29.846Z,99575.23
2019-02-18T03:45:30.748Z,99576.92
2019-02-18T03:55:33.311Z,99587.03
2019-02-18T04:05:34.345Z,99594.50
2019-02-18T04:15:35.361Z,99596.73
2019-02-18T04:35:54.381Z,99587.30
2019-02-18T04:45:56.299Z,99587.25
2019-02-18T05:06:13.166Z,99585.80
2019-02-18T05:16:13.866Z,99575.16
2019-02-18T05:26:14.793Z,99578.76
2019-02-18T05:36:15.666Z,99578.37
2019-02-18T05:46:16.326Z,99564.71
2019-02-18T05:56:17.033Z,99560.11
2019-02-18T06:06:17.672Z,99569.97
2019-02-18T06:16:18.624Z,99574.78
2019-02-18T06:26:19.490Z,99579.02
2019-02-18T06:36:20.154Z,99587.38
2019-02-18T06:46:21.016Z,99598.09
2019-02-18T06:56:21.732Z,99593.39
2019-02-18T07:06:22.364Z,99591.27
2019-02-18T07:16:23.073Z,99598.19
2019-02-18T07:26:24.012Z,99592.38
2019-02-18T07:36:24.935Z,99614.21
2019-02-18T07:46:25.711Z,99598.14
2019-02-18T07:56:26.465Z,99579.77
2019-02-18T08:06:27.350Z,99562.88
2019-02-18T08:16:27.988Z,99569.00
2019-02-18T08:36:49.025Z,99562.30
2019-02-18T08:46:55.654Z,99556.98
2019-02-18T08:56:56.472Z,99557.24
2019-02-18T09:06:57.257Z,99545.20
2019-02-18T09:16:59.088Z,99549.59
2019-02-18T09:27:05.483Z,99547.16
2019-02-18T09:37:06.375Z,99540.84
2019-02-18T09:47:14.656Z,99528.91
2019-02-18T09:57:21.580Z,99503.86
2019-02-18T10:07:20.371Z,99505.41
2019-02-18T10:17:22.970Z,99513.20
2019-02-18T10:27:25.056Z,99511.98
2019-02-18T10:37:30.124Z,99500.33
2019-02-18T10:47:30.959Z,99499.25
2019-02-18T10:57:34.208Z,99484.44
2019-02-18T11:07:35.179Z,99466.08
2019-02-18T11:17:39.189Z,99446.53
2019-02-18T11:27:40.140Z,99437.16
2019-02-18T11:38:12.741Z,99419.78
2019-02-18T11:47:45.160Z,99417.54
2019-02-18T11:57:46.133Z,99406.05
2019-02-18T12:07:47.926Z,99391.80
2019-02-18T12:17:49.854Z,99377.09
2019-02-18T12:27:55.652Z,99365.59
2019-02-18T12:37:58.739Z,99353.48
2019-02-18T12:47:59.944Z,99324.23
2019-02-18T12:58:08.316Z,99308.45
2019-02-18T13:08:09.619Z,99299.13
2019-02-18T13:18:12.830Z,99271.81
2019-02-18T13:28:14.593Z,99255.02
2019-02-18T14:09:09.992Z,99184.34
2019-02-18T14:19:10.924Z,99166.30
2019-02-18T14:29:11.580Z,99096.01
2019-02-18T14:39:12.344Z,99122.45
2019-02-18T14:49:13.237Z,99077.84
2019-02-18T14:59:14.140Z,99137.00
2019-02-18T15:09:15.056Z,99143.11
2019-02-18T15:19:15.958Z,99160.14
2019-02-18T15:29:16.699Z,99170.27
2019-02-18T15:39:17.620Z,99160.21
2019-02-18T15:49:18.376Z,99153.53
2019-02-18T15:59:19.079Z,99125.33
2019-02-18T16:09:20.180Z,99146.79
2019-02-18T16:19:20.835Z,99140.70
2019-02-18T16:50:07.026Z,99153.75
2019-02-18T17:00:14.946Z,99155.47
2019-02-18T17:10:16.561Z,99169.94
2019-02-18T17:20:17.604Z,99171.65
2019-02-18T17:30:18.316Z,99177.48
2019-02-18T17:40:18.947Z,99165.47
2019-02-18T17:50:19.624Z,99162.19
2019-02-18T18:00:23.580Z,99168.03
2019-02-18T18:10:24.213Z,99178.35
2019-02-18T18:20:25.132Z,99173.47
2019-02-18T18:30:26.526Z,99163.83
2019-02-18T18:40:27.174Z,99152.05
2019-02-18T18:50:27.914Z,99154.53
2019-02-18T19:00:29.759Z,99148.11
2019-02-18T19:10:30.808Z,99142.97
2019-02-18T19:20:31.582Z,99131.30
2019-02-18T19:30:32.648Z,99139.95
2019-02-18T19:40:33.608Z,99144.63
2019-02-18T19:50:34.605Z,99131.99
2019-02-18T20:00:35.572Z,99136.62
2019-02-18T20:10:36.283Z,99131.31
2019-02-18T20:20:37.235Z,99145.01
2019-02-18T20:30:38.135Z,99162.08
2019-02-18T20:40:39.232Z,99166.94
2019-02-18T20:50:40.438Z,99177.77
2019-02-18T21:00:41.412Z,99180.37
2019-02-18T21:10:42.043Z,99165.24
2019-02-18T21:20:42.969Z,99166.16
2019-02-18T21:30:43.972Z,99167.44
2019-02-18T21:40:44.595Z,99177.55
2019-02-18T21:50:46.542Z,99180.63
2019-02-18T22:00:47.244Z,99182.66
2019-02-18T22:10:48.425Z,99171.59
2019-02-18T22:20:49.503Z,99177.29
2019-02-18T22:30:53.379Z,99184.47
2019-02-18T22:40:54.191Z,99192.34
2019-02-18T22:50:58.016Z,99183.77
2019-02-18T23:00:59.054Z,99190.22
2019-02-18T23:10:59.880Z,99197.11
2019-02-18T23:21:00.603Z,99188.71
2019-02-18T23:31:01.338Z,99193.50
2019-02-18T23:41:02.581Z,99196.58
2019-02-18T23:51:07.893Z,99196.95
